Time;durP1;ratioP1;P1;durP2;ratioP2;P2;SDS_P1;SDS_P2;PMS_P1;PMS_P2;Temp;Humidity;BMP_temperature;BMP_pressure;BME280_temperature;BME280_humidity;BME280_pressure;Samples;Min_cycle;Max_cycle;Signal;HPM_P1;HPM_P2
2022/05/20 00:00:43;;;;;;;5.93;5.43;;;20.30;99.90;;;;;;5008818;28;20208;-59
2022/05/20 00:03:09;;;;;;;5.68;5.15;;;20.30;99.90;;;;;;5005888;28;20657;-61
2022/05/20 00:05:36;;;;;;;6.00;5.40;;;20.30;99.90;;;;;;5007686;28;20191;-62
2022/05/20 00:08:02;;;;;;;7.00;5.03;;;20.30;99.90;;;;;;5011035;28;20233;-61
2022/05/20 00:10:28;;;;;;;5.75;5.28;;;20.40;99.90;;;;;;5009234;28;20745;-62
2022/05/20 00:12:54;;;;;;;5.63;5.15;;;20.30;99.90;;;;;;5010383;28;20236;-62
2022/05/20 00:15:24;;;;;;;6.20;5.53;;;20.30;99.90;;;;;;5009369;28;20198;-62
2022/05/20 00:17:51;;;;;;;6.70;5.38;;;20.30;99.90;;;;;;5009154;28;21211;-59
2022/05/20 00:20:19;;;;;;;9.75;5.50;;;20.30;99.90;;;;;;5009044;28;20245;-62
2022/05/20 00:22:45;;;;;;;6.38;5.85;;;20.20;99.90;;;;;;5010493;28;20177;-61
2022/05/20 00:27:58;;;;;;;6.38;5.35;;;20.00;99.90;;;;;;5010248;28;20487;-60
2022/05/20 00:30:24;;;;;;;6.73;6.13;;;19.90;99.90;;;;;;5009645;28;20668;-60
2022/05/20 00:32:50;;;;;;;6.70;6.13;;;19.80;99.90;;;;;;5009947;28;20187;-60
2022/05/20 00:35:17;;;;;;;6.75;5.97;;;19.80;99.90;;;;;;5008990;28;20644;-60
2022/05/20 00:37:43;;;;;;;6.60;5.90;;;19.60;99.90;;;;;;5006412;28;20213;-60
2022/05/20 00:40:13;;;;;;;6.18;5.68;;;19.60;99.90;;;;;;5008673;28;20203;-60
2022/05/20 00:42:40;;;;;;;6.43;5.93;;;19.50;99.90;;;;;;5006982;28;20751;-60
2022/05/20 00:45:07;;;;;;;6.40;5.80;;;19.50;99.90;;;;;;5009185;28;20222;-61
2022/05/20 00:47:33;;;;;;;5.93;5.35;;;19.50;99.90;;;;;;5007541;28;20208;-60
2022/05/20 00:50:02;;;;;;;6.37;5.77;;;19.50;99.90;;;;;;5009657;28;20256;-60
2022/05/20 00:52:31;;;;;;;6.78;6.07;;;19.50;99.90;;;;;;5009962;28;20241;-60
2022/05/20 00:55:02;;;;;;;8.93;6.50;;;19.50;99.90;;;;;;5008979;28;20191;-60
2022/05/20 00:57:33;;;;;;;6.45;5.82;;;19.40;99.90;;;;;;5008328;28;20225;-61
2022/05/20 01:00:11;;;;;;;6.00;5.35;;;19.40;99.90;;;;;;5007800;28;20252;-60
2022/05/20 01:02:38;;;;;;;6.45;5.88;;;19.40;99.90;;;;;;5006494;28;20279;-60
2022/05/20 01:05:09;;;;;;;6.55;5.90;;;19.40;99.90;;;;;;5004032;28;20868;-60
2022/05/20 01:07:38;;;;;;;6.80;6.20;;;19.30;99.90;;;;;;5009421;28;20202;-60
2022/05/20 01:10:05;;;;;;;7.75;5.95;;;19.30;99.90;;;;;;5004345;28;20191;-60
2022/05/20 01:12:31;;;;;;;7.50;6.45;;;19.20;99.90;;;;;;5009083;28;20221;-61
2022/05/20 01:14:56;;;;;;;7.93;6.20;;;19.20;99.90;;;;;;5009047;28;20199;-60
2022/05/20 01:17:22;;;;;;;9.37;6.07;;;19.10;99.90;;;;;;5010461;28;20300;-60
2022/05/20 01:19:53;;;;;;;6.83;6.13;;;19.40;99.90;;;;;;5012398;28;20713;-60
2022/05/20 01:22:35;;;;;;;8.27;6.30;;;19.10;99.90;;;;;;5012957;28;20198;-60
2022/05/20 01:25:02;;;;;;;6.45;5.85;;;18.90;99.90;;;;;;5011560;28;20355;-60
2022/05/20 01:27:28;;;;;;;7.57;6.80;;;19.00;99.90;;;;;;5012326;28;20229;-60
2022/05/20 01:29:54;;;;;;;10.40;6.53;;;19.00;99.90;;;;;;5012801;28;20707;-60
2022/05/20 01:32:19;;;;;;;7.33;6.47;;;18.90;99.90;;;;;;5014152;28;20240;-60
2022/05/20 01:34:45;;;;;;;7.20;6.50;;;18.90;99.90;;;;;;5012447;28;20195;-60
2022/05/20 01:37:11;;;;;;;9.83;6.13;;;18.90;99.90;;;;;;5011696;28;20210;-60
2022/05/20 01:39:37;;;;;;;6.93;6.23;;;18.90;99.90;;;;;;5010699;28;20599;-60
2022/05/20 01:42:16;;;;;;;7.70;6.15;;;18.90;99.90;;;;;;5012838;28;20225;-60
2022/05/20 01:44:49;;;;;;;6.45;5.95;;;18.80;99.90;;;;;;5012206;28;20653;-60
2022/05/20 01:47:39;;;;;;;5.70;5.22;;;18.80;99.90;;;;;;5012989;28;20290;-60
2022/05/20 01:50:05;;;;;;;7.00;6.40;;;18.80;99.90;;;;;;5007122;28;20194;-60
2022/05/20 01:52:35;;;;;;;7.17;5.77;;;18.80;99.90;;;;;;5012615;28;20233;-60
2022/05/20 01:55:19;;;;;;;8.15;7.35;;;18.80;99.90;;;;;;5012185;28;20441;-60
2022/05/20 01:58:00;;;;;;;6.75;6.05;;;18.80;99.90;;;;;;5010786;28;20218;-60
2022/05/20 02:00:31;;;;;;;6.75;6.15;;;18.70;99.90;;;;;;5010343;28;20206;-60
2022/05/20 02:03:19;;;;;;;7.05;6.55;;;18.80;99.90;;;;;;5012355;28;20549;-60
2022/05/20 02:05:54;;;;;;;6.97;6.38;;;18.70;99.90;;;;;;5012667;28;20614;-60
2022/05/20 02:08:32;;;;;;;7.50;6.80;;;18.70;99.90;;;;;;5008813;28;20201;-61
2022/05/20 02:11:35;;;;;;;6.97;6.32;;;18.70;99.90;;;;;;5011543;28;20286;-60
2022/05/20 02:14:07;;;;;;;7.30;6.70;;;18.70;99.90;;;;;;5005519;28;20183;-60
2022/05/20 02:16:42;;;;;;;6.97;6.38;;;18.60;99.90;;;;;;5010708;28;20274;-60
2022/05/20 02:19:18;;;;;;;7.15;6.43;;;18.70;99.90;;;;;;5006120;28;20202;-60
2022/05/20 02:21:49;;;;;;;7.18;6.28;;;18.70;99.90;;;;;;5011884;28;20213;-60
2022/05/20 02:24:19;;;;;;;7.18;6.47;;;18.60;99.90;;;;;;5012128;28;20309;-59
2022/05/20 02:26:52;;;;;;;8.77;6.30;;;18.70;99.90;;;;;;5012869;28;20187;-60
2022/05/20 02:29:22;;;;;;;7.15;6.35;;;19.00;99.90;;;;;;5011820;28;20294;-61
2022/05/20 02:32:11;;;;;;;6.63;6.13;;;18.70;99.90;;;;;;5010181;28;20183;-60
2022/05/20 02:34:36;;;;;;;5.82;5.43;;;18.70;99.90;;;;;;5010151;28;20198;-61
2022/05/20 02:37:25;;;;;;;7.07;6.47;;;18.50;99.90;;;;;;5011693;28;20185;-60
2022/05/20 02:39:51;;;;;;;9.23;7.25;;;18.70;99.90;;;;;;5008788;28;20195;-60
2022/05/20 02:42:17;;;;;;;8.10;7.30;;;18.70;99.90;;;;;;5011607;28;20567;-60
2022/05/20 02:44:43;;;;;;;6.75;6.15;;;18.80;99.90;;;;;;5011378;28;20520;-60
2022/05/20 02:47:09;;;;;;;7.20;6.50;;;18.80;99.90;;;;;;5011931;28;20235;-60
2022/05/20 02:49:35;;;;;;;9.02;7.00;;;18.80;99.90;;;;;;5015703;28;20202;-60
2022/05/20 02:52:02;;;;;;;7.43;6.83;;;18.90;99.90;;;;;;5012267;28;20175;-60
2022/05/20 02:54:27;;;;;;;6.60;6.10;;;18.80;99.90;;;;;;5010593;28;20441;-61
2022/05/20 02:56:53;;;;;;;7.07;6.47;;;18.80;99.90;;;;;;5009411;28;20199;-60
2022/05/20 03:04:48;;;;;;;7.40;6.70;;;18.70;99.90;;;;;;5010484;28;20214;-60
2022/05/20 03:07:13;;;;;;;7.73;7.03;;;18.70;99.90;;;;;;5007004;28;20223;-60
2022/05/20 03:09:39;;;;;;;7.13;6.53;;;18.70;99.90;;;;;;5009104;28;20182;-60
2022/05/20 03:12:06;;;;;;;7.40;6.85;;;18.70;99.90;;;;;;5011174;28;20232;-61
2022/05/20 03:14:32;;;;;;;8.23;7.15;;;18.70;99.90;;;;;;5009879;28;20692;-61
2022/05/20 03:17:02;;;;;;;8.70;6.82;;;18.70;99.90;;;;;;5009936;28;20214;-61
2022/05/20 03:19:30;;;;;;;8.02;6.88;;;18.70;99.90;;;;;;5010534;28;20679;-61
2022/05/20 03:22:03;;;;;;;7.10;6.50;;;18.70;99.90;;;;;;5010714;28;20234;-61
2022/05/20 03:24:29;;;;;;;7.38;6.68;;;18.70;99.90;;;;;;5011015;28;20179;-60
2022/05/20 03:26:55;;;;;;;8.30;7.47;;;18.70;99.90;;;;;;5010869;28;20190;-62
2022/05/20 03:29:21;;;;;;;8.55;7.35;;;18.80;99.90;;;;;;5010797;28;20264;-62
2022/05/20 03:31:47;;;;;;;7.93;7.13;;;18.80;99.90;;;;;;5011204;28;20217;-61
2022/05/20 03:34:14;;;;;;;7.68;6.90;;;18.80;99.90;;;;;;5011527;28;20175;-61
2022/05/20 03:36:46;;;;;;;7.22;6.57;;;18.90;99.90;;;;;;5009238;28;20194;-61
2022/05/20 03:39:14;;;;;;;7.95;7.32;;;18.90;99.90;;;;;;5003592;28;20252;-61
2022/05/20 03:41:40;;;;;;;7.25;6.65;;;18.90;99.90;;;;;;5007980;28;20224;-61
2022/05/20 03:44:08;;;;;;;7.50;6.80;;;19.00;99.90;;;;;;5006373;28;20196;-60
2022/05/20 03:46:39;;;;;;;7.65;7.05;;;19.10;99.90;;;;;;5010071;28;20187;-61
2022/05/20 03:49:05;;;;;;;7.75;7.05;;;19.10;99.90;;;;;;5006116;28;20206;-61
2022/05/20 03:51:31;;;;;;;7.47;6.63;;;19.20;99.90;;;;;;5007235;28;20206;-61
2022/05/20 03:53:56;;;;;;;7.70;6.60;;;19.20;99.90;;;;;;5009071;28;20195;-61
2022/05/20 03:56:22;;;;;;;8.00;7.30;;;19.20;99.90;;;;;;5008776;28;20499;-60
2022/05/20 03:58:48;;;;;;;7.43;6.83;;;19.30;99.90;;;;;;5009308;28;20214;-60
2022/05/20 04:03:58;;;;;;;7.85;6.72;;;19.20;99.90;;;;;;5010146;28;20280;-61
2022/05/20 04:06:23;;;;;;;8.13;7.33;;;19.40;99.90;;;;;;5010045;28;20235;-60
2022/05/20 04:08:49;;;;;;;11.03;7.50;;;19.40;99.90;;;;;;5009087;28;20210;-59
2022/05/20 04:11:16;;;;;;;7.33;6.73;;;19.40;99.90;;;;;;5006277;28;20690;-58
2022/05/20 04:13:43;;;;;;;7.22;6.53;;;19.40;99.90;;;;;;5007145;28;20241;-60
2022/05/20 04:16:10;;;;;;;7.18;6.50;;;19.50;99.90;;;;;;5009610;28;20191;-60
2022/05/20 04:18:37;;;;;;;8.05;6.75;;;19.50;99.90;;;;;;5008156;28;20864;-59
2022/05/20 04:21:04;;;;;;;6.93;6.32;;;19.50;99.90;;;;;;5007036;28;20203;-59
2022/05/20 04:23:30;;;;;;;7.00;6.50;;;19.50;99.90;;;;;;5009040;28;20701;-60
2022/05/20 04:25:55;;;;;;;7.10;6.40;;;19.50;99.90;;;;;;5008789;28;20294;-58
2022/05/20 04:28:21;;;;;;;7.23;6.63;;;19.60;99.90;;;;;;5009213;28;20469;-59
2022/05/20 04:30:47;;;;;;;6.80;6.20;;;19.60;99.90;;;;;;5009287;28;20668;-59
2022/05/20 04:33:13;;;;;;;7.47;6.70;;;19.60;99.90;;;;;;5003497;28;20218;-59
2022/05/20 04:35:39;;;;;;;7.20;6.50;;;19.50;99.90;;;;;;5007007;28;20473;-59
2022/05/20 04:38:05;;;;;;;9.27;7.72;;;19.50;99.90;;;;;;5010858;28;20213;-58
2022/05/20 04:40:31;;;;;;;6.50;5.90;;;19.50;99.90;;;;;;5005799;28;20613;-58
2022/05/20 04:48:25;;;;;;;6.55;5.95;;;19.50;99.90;;;;;;5008751;28;20260;-57
2022/05/20 04:50:51;;;;;;;6.50;6.00;;;19.30;99.90;;;;;;5003829;28;20187;-58
2022/05/20 04:56:00;;;;;;;7.05;6.13;;;19.90;99.90;;;;;;5010024;28;20224;-57
2022/05/20 04:58:26;;;;;;;6.83;6.13;;;19.70;99.90;;;;;;5009069;28;20712;-58
2022/05/20 05:00:54;;;;;;;6.40;5.80;;;19.70;99.90;;;;;;5012274;28;20698;-59
2022/05/20 05:03:19;;;;;;;6.03;5.53;;;19.80;99.90;;;;;;5010046;28;20187;-58
2022/05/20 05:05:45;;;;;;;6.47;5.87;;;19.90;99.90;;;;;;5014060;28;20194;-59
2022/05/20 05:08:10;;;;;;;6.90;6.30;;;20.00;99.90;;;;;;5012686;28;20214;-59
2022/05/20 05:10:36;;;;;;;6.23;5.60;;;20.20;99.90;;;;;;5010633;28;20687;-59
2022/05/20 05:13:02;;;;;;;6.83;6.00;;;20.20;99.90;;;;;;5011705;28;20190;-57
2022/05/20 05:15:28;;;;;;;7.20;6.50;;;20.30;99.90;;;;;;5010606;28;20202;-58
2022/05/20 05:18:09;;;;;;;7.18;6.57;;;20.40;99.90;;;;;;5004585;28;20285;-58
2022/05/20 05:20:36;;;;;;;6.88;6.15;;;20.50;99.90;;;;;;5012528;28;20221;-58
2022/05/20 05:23:03;;;;;;;6.03;5.53;;;20.60;99.90;;;;;;5007997;28;20182;-58
2022/05/20 05:25:32;;;;;;;6.40;5.90;;;20.80;99.90;;;;;;5014190;28;20671;-57
2022/05/20 05:27:58;;;;;;;7.80;6.70;;;20.90;99.90;;;;;;5008448;28;20228;-57
2022/05/20 05:30:25;;;;;;;5.70;5.20;;;21.10;99.90;;;;;;5006529;28;20190;-57
2022/05/20 05:32:51;;;;;;;6.00;5.40;;;21.20;99.90;;;;;;5013352;28;20855;-58
2022/05/20 05:35:20;;;;;;;6.00;5.40;;;21.30;99.90;;;;;;5008826;28;20179;-58
2022/05/20 05:37:46;;;;;;;6.25;5.43;;;21.30;99.90;;;;;;5008040;28;20519;-57
2022/05/20 05:40:15;;;;;;;6.23;5.73;;;21.40;99.90;;;;;;5012076;28;20218;-57
2022/05/20 05:42:41;;;;;;;6.72;5.85;;;21.50;99.90;;;;;;5013042;28;20541;-58
2022/05/20 05:45:08;;;;;;;6.00;5.40;;;21.70;99.90;;;;;;5007749;28;20186;-57
2022/05/20 05:47:34;;;;;;;5.80;5.03;;;21.40;99.90;;;;;;5012027;28;20553;-57
2022/05/20 05:50:00;;;;;;;8.03;5.00;;;21.90;99.90;;;;;;5011160;28;20521;-58
2022/05/20 05:52:25;;;;;;;6.63;5.60;;;22.00;99.90;;;;;;5011151;28;20508;-58
2022/05/20 05:54:51;;;;;;;6.13;5.63;;;22.20;99.90;;;;;;5010679;28;20495;-58
2022/05/20 05:57:16;;;;;;;6.13;5.57;;;22.30;99.90;;;;;;5010598;28;20222;-57
2022/05/20 05:59:42;;;;;;;5.27;4.87;;;22.40;99.90;;;;;;5006981;28;20179;-60
2022/05/20 06:02:09;;;;;;;5.47;4.97;;;22.50;99.90;;;;;;5003672;28;20718;-61
2022/05/20 06:04:35;;;;;;;5.40;5.00;;;22.50;99.90;;;;;;5008973;28;20235;-61
2022/05/20 06:07:02;;;;;;;5.50;5.00;;;22.50;99.90;;;;;;5011072;28;20442;-61
2022/05/20 06:09:28;;;;;;;6.17;5.67;;;22.60;99.90;;;;;;5013416;28;20454;-61
2022/05/20 06:11:54;;;;;;;6.43;5.83;;;22.60;99.90;;;;;;5011573;28;20429;-62
2022/05/20 06:14:20;;;;;;;5.73;5.20;;;22.70;99.90;;;;;;5004492;28;20186;-60
2022/05/20 06:16:46;;;;;;;5.73;5.23;;;22.70;99.90;;;;;;5009604;28;20483;-59
2022/05/20 06:19:11;;;;;;;5.07;4.70;;;22.70;99.90;;;;;;5004162;28;20688;-61
2022/05/20 06:21:40;;;;;;;11.57;5.80;;;22.80;99.90;;;;;;5009744;28;20202;-60
2022/05/20 06:24:08;;;;;;;6.63;5.50;;;22.90;99.90;;;;;;5010835;28;20445;-62
2022/05/20 06:26:33;;;;;;;6.00;4.80;;;23.00;99.90;;;;;;5008073;28;20545;-66
2022/05/20 06:28:59;;;;;;;5.07;4.67;;;23.20;99.50;;;;;;5012365;28;20525;-69
2022/05/20 06:31:25;;;;;;;6.50;5.17;;;23.40;99.20;;;;;;5001896;28;20201;-71
2022/05/20 06:33:51;;;;;;;5.67;4.80;;;23.30;98.60;;;;;;5012517;28;20179;-71
2022/05/20 06:41:46;;;;;;;4.80;4.40;;;24.30;96.50;;;;;;5011222;28;20604;-67
2022/05/20 06:44:11;;;;;;;6.20;4.50;;;24.50;95.80;;;;;;5011992;28;20556;-68
2022/05/20 06:46:37;;;;;;;5.50;5.00;;;24.80;95.70;;;;;;5006321;28;20273;-69
2022/05/20 06:49:03;;;;;;;8.90;4.93;;;25.10;95.70;;;;;;5003087;28;20206;-69
2022/05/20 06:51:32;;;;;;;5.40;4.10;;;25.50;94.40;;;;;;5009465;28;20691;-69
2022/05/20 06:53:59;;;;;;;4.77;4.37;;;25.80;93.60;;;;;;5006306;28;20451;-70
2022/05/20 06:56:30;;;;;;;4.97;4.57;;;26.00;93.10;;;;;;5010549;28;20969;-72
2022/05/20 06:58:57;;;;;;;5.97;4.40;;;26.50;92.80;;;;;;5009341;28;21135;-74
2022/05/20 07:01:23;;;;;;;4.93;4.53;;;27.10;91.30;;;;;;5010758;28;20554;-73
2022/05/20 07:03:49;;;;;;;4.80;4.50;;;28.40;88.80;;;;;;5011287;28;20477;-74
2022/05/20 07:06:16;;;;;;;4.63;4.33;;;29.80;83.00;;;;;;5009693;28;20536;-69
2022/05/20 07:08:48;;;;;;;4.70;4.30;;;31.10;77.30;;;;;;5003949;28;20779;-71
2022/05/20 07:11:14;;;;;;;5.10;4.13;;;32.10;71.80;;;;;;5009149;28;20472;-72
2022/05/20 07:13:41;;;;;;;4.87;4.50;;;32.90;68.60;;;;;;5023344;28;20443;-67
2022/05/20 07:16:07;;;;;;;5.00;4.60;;;34.30;65.20;;;;;;5009348;28;20492;-70
2022/05/20 07:18:34;;;;;;;4.90;4.60;;;35.30;60.10;;;;;;5010510;28;20473;-70
2022/05/20 07:21:01;;;;;;;5.30;4.90;;;35.80;57.10;;;;;;5008016;28;20556;-71
2022/05/20 07:23:29;;;;;;;5.20;4.00;;;36.20;55.70;;;;;;5002723;28;20445;-69
2022/05/20 07:25:55;;;;;;;4.77;4.20;;;36.90;53.60;;;;;;5010025;28;20480;-68
2022/05/20 07:28:21;;;;;;;5.97;4.40;;;37.30;52.80;;;;;;5009396;28;20492;-67
2022/05/20 07:30:47;;;;;;;4.90;4.30;;;37.90;51.00;;;;;;5009946;28;20445;-73
2022/05/20 07:33:12;;;;;;;4.90;4.50;;;38.30;49.40;;;;;;5010904;28;20452;-74
2022/05/20 07:35:39;;;;;;;5.60;4.87;;;38.80;48.90;;;;;;5020259;28;20183;-67
2022/05/20 07:38:05;;;;;;;5.10;4.70;;;39.00;47.40;;;;;;5008465;28;20214;-68
2022/05/20 07:40:31;;;;;;;6.93;5.30;;;39.30;46.50;;;;;;5007704;28;20470;-74
2022/05/20 07:42:57;;;;;;;4.70;4.40;;;39.50;45.40;;;;;;5011320;28;20525;-68
2022/05/20 07:45:23;;;;;;;5.17;4.70;;;39.80;45.60;;;;;;5010717;28;20516;-67
2022/05/20 07:47:49;;;;;;;5.03;4.50;;;39.70;44.80;;;;;;5010117;28;20210;-64
2022/05/20 07:50:15;;;;;;;5.60;5.10;;;39.70;44.30;;;;;;5009903;28;20446;-70
2022/05/20 07:55:31;;;;;;;5.10;4.70;;;39.50;44.40;;;;;;5012185;28;20576;-74
2022/05/20 07:57:57;;;;;;;5.73;4.80;;;39.00;44.40;;;;;;5010746;28;20464;-71
2022/05/20 08:00:23;;;;;;;5.63;4.20;;;40.20;43.00;;;;;;5006667;28;20564;-69
2022/05/20 08:02:53;;;;;;;5.17;4.77;;;40.50;42.50;;;;;;5009203;28;20462;-64
2022/05/20 08:05:21;;;;;;;5.07;4.30;;;40.10;42.40;;;;;;5004578;28;20888;-60
2022/05/20 08:07:47;;;;;;;5.10;4.73;;;39.30;42.50;;;;;;5011027;28;20457;-60
2022/05/20 08:10:21;;;;;;;5.67;5.10;;;39.70;42.50;;;;;;5011219;28;20603;-60
2022/05/20 08:12:47;;;;;;;4.97;4.47;;;39.80;42.20;;;;;;5011650;28;20434;-60
2022/05/20 08:15:15;;;;;;;4.90;4.50;;;40.50;40.70;;;;;;5008218;28;20568;-68
2022/05/20 08:17:43;;;;;;;5.13;4.60;;;40.60;40.40;;;;;;5004673;28;20818;-67
2022/05/20 08:20:21;;;;;;;4.87;4.37;;;40.80;40.10;;;;;;5009070;28;21033;-66
2022/05/20 08:22:46;;;;;;;5.23;4.83;;;40.80;39.50;;;;;;5006215;28;20515;-64
2022/05/20 08:25:12;;;;;;;4.37;4.17;;;40.60;39.40;;;;;;5008716;28;20946;-65
2022/05/20 08:27:38;;;;;;;5.47;4.97;;;40.50;39.90;;;;;;5013647;28;20669;-67
2022/05/20 08:30:27;;;;;;;6.13;5.53;;;41.00;38.70;;;;;;5006963;28;20187;-63
2022/05/20 08:32:52;;;;;;;5.23;4.73;;;42.00;38.00;;;;;;5009892;28;20438;-64
2022/05/20 08:35:20;;;;;;;4.60;4.20;;;41.90;37.60;;;;;;5008979;28;20480;-63
2022/05/20 08:37:48;;;;;;;5.60;4.40;;;41.90;37.30;;;;;;5009441;28;20207;-65
2022/05/20 08:40:22;;;;;;;5.00;4.60;;;42.20;36.20;;;;;;5007473;28;20480;-67
2022/05/20 08:42:50;;;;;;;4.70;4.30;;;42.30;35.80;;;;;;5009370;28;20495;-67
2022/05/20 08:45:19;;;;;;;5.20;4.80;;;41.40;36.70;;;;;;5002280;28;20445;-64
2022/05/20 08:47:47;;;;;;;5.60;4.40;;;41.20;37.20;;;;;;4996687;28;20469;-66
2022/05/20 08:50:37;;;;;;;5.87;5.30;;;42.40;36.50;;;;;;5009283;28;20434;-66
2022/05/20 08:53:07;;;;;;;6.90;4.83;;;41.70;36.20;;;;;;5011427;28;20473;-64
2022/05/20 08:55:33;;;;;;;5.50;5.07;;;41.90;37.00;;;;;;5008111;28;20552;-66
2022/05/20 08:58:01;;;;;;;6.17;4.67;;;42.20;36.40;;;;;;5007187;28;20856;-66
2022/05/20 09:00:28;;;;;;;4.93;4.63;;;43.30;35.50;;;;;;5005583;28;20567;-68
2022/05/20 09:02:53;;;;;;;7.30;5.20;;;43.80;34.90;;;;;;5009515;28;20603;-66
2022/05/20 09:05:29;;;;;;;5.47;4.63;;;44.10;33.70;;;;;;5008809;28;20453;-68
2022/05/20 09:08:21;;;;;;;5.20;4.77;;;43.80;33.00;;;;;;5007084;28;20210;-65
2022/05/20 09:10:51;;;;;;;6.20;4.50;;;42.10;34.30;;;;;;4998443;28;20449;-66
2022/05/20 09:15:43;;;;;;;4.83;4.53;;;42.40;33.90;;;;;;5008709;28;20576;-66
2022/05/20 09:16:15;;;;;;;4.57;4.17;;;42.60;32.70;;;;;;5007755;28;20481;-71
2022/05/20 09:18:44;;;;;;;4.30;3.97;;;42.80;32.80;;;;;;5007712;28;20540;-67
2022/05/20 09:21:35;;;;;;;5.83;5.00;;;43.30;32.50;;;;;;5009760;28;20473;-67
2022/05/20 09:24:05;;;;;;;5.60;4.10;;;43.80;32.70;;;;;;5008971;28;20445;-62
2022/05/20 09:26:37;;;;;;;5.33;4.93;;;43.40;32.30;;;;;;5009017;28;20444;-67
2022/05/20 09:29:10;;;;;;;4.90;4.50;;;43.40;32.20;;;;;;5005372;28;20568;-66
2022/05/20 09:31:44;;;;;;;4.97;4.47;;;43.20;32.00;;;;;;5005336;28;20449;-67
2022/05/20 09:34:27;;;;;;;5.77;5.30;;;43.30;31.80;;;;;;5005253;28;20451;-70
2022/05/20 09:37:08;;;;;;;6.17;5.57;;;42.50;32.40;;;;;;5008583;28;20500;-64
2022/05/20 09:39:37;;;;;;;4.97;4.57;;;42.90;32.60;;;;;;5008975;28;20449;-64
2022/05/20 09:42:13;;;;;;;5.97;4.70;;;42.30;32.60;;;;;;5011897;28;20512;-64
2022/05/20 09:44:42;;;;;;;5.07;4.60;;;41.80;32.30;;;;;;5008588;28;20805;-64
2022/05/20 09:47:26;;;;;;;5.20;4.80;;;41.10;33.50;;;;;;5011547;28;20807;-64
2022/05/20 09:50:22;;;;;;;6.87;4.40;;;41.30;33.60;;;;;;5009591;28;20447;-72
2022/05/20 09:52:55;;;;;;;5.23;4.73;;;42.00;33.20;;;;;;5010297;28;20442;-61
2022/05/20 09:55:34;;;;;;;5.20;4.80;;;42.20;32.70;;;;;;5007111;28;20452;-63
2022/05/20 09:58:15;;;;;;;5.30;4.80;;;42.80;32.30;;;;;;5005202;28;20462;-62
2022/05/20 10:01:01;;;;;;;5.30;4.73;;;43.30;31.70;;;;;;5003660;28;20581;-67
2022/05/20 10:03:46;;;;;;;5.57;4.77;;;43.20;32.00;;;;;;5012494;28;20548;-64
2022/05/20 10:06:41;;;;;;;7.10;4.53;;;43.90;31.70;;;;;;5005735;28;20437;-64
2022/05/20 10:09:23;;;;;;;4.80;4.40;;;43.70;30.90;;;;;;5008733;28;21066;-69
2022/05/20 10:11:51;;;;;;;5.37;4.63;;;44.20;31.00;;;;;;5008467;28;20492;-71
2022/05/20 10:14:24;;;;;;;5.47;4.80;;;44.30;30.70;;;;;;5004078;28;20458;-71
2022/05/20 10:17:02;;;;;;;5.90;5.43;;;43.70;30.10;;;;;;5005315;28;20515;-74
2022/05/20 10:19:31;;;;;;;5.30;4.40;;;42.00;32.00;;;;;;5012168;28;20437;-68
2022/05/20 10:22:10;;;;;;;6.50;5.50;;;41.30;33.60;;;;;;5016087;28;20813;-60
2022/05/20 10:24:59;;;;;;;5.07;4.57;;;39.70;35.30;;;;;;5029806;28;20446;-59
2022/05/20 10:32:34;;;;;;;7.70;6.03;;;37.50;37.60;;;;;;5016729;28;21039;-60
2022/05/20 10:33:50;;;;;;;6.03;5.50;;;35.40;41.20;;;;;;5006527;28;20448;-59
2022/05/20 10:36:33;;;;;;;5.13;4.60;;;35.10;41.60;;;;;;5016294;28;20438;-59
2022/05/20 10:39:12;;;;;;;4.97;4.50;;;34.80;40.10;;;;;;5016495;28;20441;-59
2022/05/20 10:41:46;;;;;;;7.00;5.30;;;34.40;40.50;;;;;;5015191;28;20821;-58
2022/05/20 10:50:31;;;;;;;5.30;4.30;;;34.60;39.70;;;;;;5015067;28;20440;-59
2022/05/20 10:53:26;;;;;;;5.60;5.10;;;34.80;39.20;;;;;;5015645;28;21234;-59
2022/05/20 10:56:03;;;;;;;9.63;4.97;;;36.00;37.80;;;;;;5016080;28;20445;-58
2022/05/20 10:58:47;;;;;;;6.00;4.30;;;36.70;36.90;;;;;;5015724;28;20452;-62
2022/05/20 11:02:03;;;;;;;5.43;4.77;;;37.70;36.00;;;;;;5016253;28;20500;-60
2022/05/20 11:04:51;;;;;;;4.47;4.07;;;38.90;33.60;;;;;;5034566;28;20455;-60
2022/05/20 11:07:27;;;;;;;5.80;5.30;;;39.60;33.30;;;;;;5013714;28;20831;-60
2022/05/20 11:10:24;;;;;;;7.50;5.70;;;40.90;32.00;;;;;;5016116;28;20441;-60
2022/05/20 11:13:10;;;;;;;6.10;4.20;;;41.00;31.80;;;;;;5021700;28;20437;-59
2022/05/20 11:16:20;;;;;;;5.90;4.40;;;41.40;31.90;;;;;;5026321;28;20448;-59
2022/05/20 11:19:02;;;;;;;6.43;5.80;;;41.40;31.00;;;;;;5015937;28;20612;-59
2022/05/20 11:21:45;;;;;;;4.70;4.30;;;41.60;30.90;;;;;;5012673;28;21145;-59
2022/05/20 11:24:18;;;;;;;6.47;4.97;;;41.70;30.50;;;;;;5015372;28;20437;-61
2022/05/20 11:26:57;;;;;;;5.33;4.83;;;41.60;30.10;;;;;;5016580;28;20848;-60
2022/05/20 11:30:10;;;;;;;4.00;3.70;;;41.60;30.70;;;;;;5023784;28;20470;-60
2022/05/20 11:32:36;;;;;;;6.73;6.23;;;41.30;30.70;;;;;;5003033;28;20422;-59
2022/05/20 11:35:23;;;;;;;6.70;4.87;;;40.70;30.90;;;;;;5017379;28;20437;-59
2022/05/20 11:37:57;;;;;;;5.97;4.60;;;40.40;30.90;;;;;;5015034;28;20214;-60
2022/05/20 11:40:34;;;;;;;6.40;4.63;;;39.90;32.20;;;;;;5014813;28;20566;-59
2022/05/20 11:43:23;;;;;;;5.33;4.40;;;39.30;32.50;;;;;;5015932;28;20453;-59
2022/05/20 11:46:04;;;;;;;4.60;4.20;;;38.80;33.30;;;;;;5010545;28;20465;-59
2022/05/20 11:49:04;;;;;;;4.83;4.13;;;38.20;33.50;;;;;;5014803;28;20448;-59
2022/05/20 11:51:44;;;;;;;4.63;4.10;;;37.20;35.10;;;;;;5014630;28;20441;-60
2022/05/20 11:54:17;;;;;;;5.13;4.37;;;37.00;35.30;;;;;;5011448;28;20437;-60
2022/05/20 11:56:53;;;;;;;6.37;4.47;;;36.50;37.00;;;;;;5013732;28;20489;-60
2022/05/20 11:59:35;;;;;;;5.33;4.80;;;35.70;37.50;;;;;;5008693;28;20437;-70
2022/05/20 12:02:06;;;;;;;5.03;4.50;;;35.20;38.50;;;;;;5008503;28;20551;-69
2022/05/20 12:04:34;;;;;;;5.10;4.60;;;34.90;38.70;;;;;;5008851;28;20477;-69
2022/05/20 12:07:05;;;;;;;4.70;4.23;;;34.60;39.00;;;;;;5009261;28;20437;-70
2022/05/20 12:09:44;;;;;;;6.33;5.10;;;34.50;39.60;;;;;;5005823;28;20442;-70
2022/05/20 12:12:11;;;;;;;5.97;4.47;;;34.20;40.40;;;;;;5008739;28;20523;-64
2022/05/20 12:15:04;;;;;;;6.63;4.67;;;34.10;40.60;;;;;;5003461;28;20491;-66
2022/05/20 12:17:33;;;;;;;6.13;3.90;;;33.80;40.40;;;;;;5010171;28;20451;-65
2022/05/20 12:25:51;;;;;;;5.03;3.97;;;33.50;41.70;;;;;;5016480;28;20440;-66
2022/05/20 12:28:23;;;;;;;4.40;4.10;;;33.60;41.40;;;;;;5012723;28;20504;-60
2022/05/20 12:31:19;;;;;;;4.70;4.37;;;33.50;40.80;;;;;;5009397;28;21066;-60
2022/05/20 12:34:05;;;;;;;8.83;4.83;;;33.30;41.30;;;;;;5007855;28;20985;-62
2022/05/20 12:36:31;;;;;;;4.77;4.33;;;33.20;41.70;;;;;;5010000;28;20430;-60
2022/05/20 12:39:09;;;;;;;7.20;4.60;;;33.10;42.00;;;;;;5007650;28;20468;-58
2022/05/20 12:41:48;;;;;;;5.73;4.20;;;33.10;42.80;;;;;;5007589;28;20222;-58
2022/05/20 12:44:20;;;;;;;4.90;4.23;;;33.10;42.30;;;;;;5001929;28;21109;-67
2022/05/20 12:47:10;;;;;;;5.83;4.30;;;33.10;41.50;;;;;;5008721;28;20451;-66
2022/05/20 12:49:48;;;;;;;4.50;3.80;;;33.10;40.80;;;;;;5008842;28;20445;-67
2022/05/20 12:52:23;;;;;;;7.30;4.40;;;33.00;39.20;;;;;;5020662;28;20434;-65
2022/05/20 12:54:52;;;;;;;4.70;4.30;;;33.00;40.10;;;;;;5008265;28;20941;-63
2022/05/20 12:57:31;;;;;;;5.60;4.10;;;32.90;39.60;;;;;;5008929;28;20472;-64
2022/05/20 12:59:58;;;;;;;6.67;3.83;;;32.80;40.40;;;;;;5005461;28;20498;-62
2022/05/20 13:02:37;;;;;;;4.93;3.70;;;32.70;40.30;;;;;;5006995;28;20469;-63
2022/05/20 13:05:31;;;;;;;7.03;4.70;;;32.80;40.40;;;;;;4998758;28;20436;-63
2022/05/20 13:07:58;;;;;;;7.20;4.60;;;32.80;40.10;;;;;;5006063;28;20456;-62
2022/05/20 13:10:24;;;;;;;4.70;3.60;;;32.80;40.50;;;;;;5009031;28;20540;-62
2022/05/20 13:12:52;;;;;;;4.30;3.20;;;32.90;40.80;;;;;;5010147;28;20540;-65
2022/05/20 13:15:19;;;;;;;5.17;4.17;;;32.90;39.00;;;;;;5011401;28;20242;-62
2022/05/20 13:17:56;;;;;;;6.73;4.10;;;33.00;39.50;;;;;;5010850;28;20456;-65
2022/05/20 13:20:23;;;;;;;5.97;3.87;;;33.00;39.40;;;;;;5012343;28;20469;-66
2022/05/20 13:22:50;;;;;;;5.30;3.50;;;33.10;39.20;;;;;;5012195;28;20445;-70
2022/05/20 13:25:18;;;;;;;7.03;4.50;;;33.20;39.30;;;;;;5011349;28;20440;-65
2022/05/20 13:27:45;;;;;;;5.17;3.53;;;33.20;38.80;;;;;;5013848;28;20457;-63
2022/05/20 13:30:18;;;;;;;5.70;4.13;;;33.20;39.10;;;;;;5012469;28;20441;-64
2022/05/20 13:32:44;;;;;;;4.10;3.70;;;33.20;39.00;;;;;;5012089;28;20441;-66
2022/05/20 13:35:09;;;;;;;4.77;3.77;;;33.20;39.00;;;;;;5010333;28;20436;-70
2022/05/20 13:37:49;;;;;;;6.10;4.23;;;33.20;39.10;;;;;;5009209;28;20225;-66
2022/05/20 13:40:39;;;;;;;5.93;3.40;;;33.30;38.70;;;;;;5010627;28;20179;-64
2022/05/20 13:43:07;;;;;;;4.47;3.43;;;33.20;39.10;;;;;;5011234;28;20438;-64
2022/05/20 13:51:21;;;;;;;6.57;3.73;;;33.10;40.10;;;;;;5010392;28;20456;-72
2022/05/20 13:53:49;;;;;;;5.00;3.80;;;33.30;39.80;;;;;;5010283;28;20535;-67
2022/05/20 13:56:15;;;;;;;6.77;3.53;;;33.00;39.10;;;;;;5012011;28;20958;-65